Diane G — DIANEG — position and weather

sailwx.info

Track history (hours):
 
Tides and Currents Weather Stations Pressure Air Temp Water Temp Dewpoint Dewpoint Depression Visibility Wind Speed Wind Dir Waves Ship Positions

Diane G

Last reported at 2015-May-01 13:33 UTC. Time now 2015-May-05 09:13 UTC.
Position N 34°09' W 119°13'.

Length 35 m; draft 2.5 m.

Type: Military. MMSI: 369970275.

Date/timePositionNaut miles runAvg speedWind from/ knotsBaromVisibWave heightAir tempDewpointWater temp
2015-May-01 13:33N 34°09' W 119°13'1 1.0
2015-May-01 12:33N 34°08' W 119°13'9 8.8
2015-May-01 11:33N 34°01' W 119°06'9 9.0
2015-May-01 10:33N 33°55' W 118°59'9 8.7
2015-May-01 09:33N 33°49' W 118°51'10 9.1
2015-May-01 08:30N 33°43' W 118°42'9 9.1
2015-May-01 07:33N 33°37' W 118°35'9 8.9
2015-May-01 06:33N 33°30' W 118°28'9 9.2
2015-May-01 05:33N 33°24' W 118°20'9 9.4
2015-May-01 04:33N 33°17' W 118°12'9 9.4
2015-May-01 03:33N 33°10' W 118°04'9 9.3
2015-May-01 02:33N 33°04' W 117°56'9 9.1
2015-May-01 01:33N 32°59' W 117°47'9 9.3
2015-May-01 00:33N 32°53' W 117°38'9 8.9
2015-Apr-30 23:33N 32°47' W 117°31'9 8.8
2015-Apr-30 22:33N 32°42' W 117°23'8 8.3
2015-Apr-30 21:33N 32°37' W 117°14'5 5.5
2015-Apr-30 20:33N 32°43' W 117°13'2 0.1
2015-Apr-29 18:33N 32°43' W 117°11'0 0.0
2015-Apr-29 17:33N 32°43' W 117°11'0 0.0
2015-Apr-29 16:32N 32°43' W 117°11'0 0.0
2015-Apr-29 15:33N 32°43' W 117°11'0 0.0
2015-Apr-29 14:33N 32°43' W 117°11'0 0.0
2015-Apr-29 13:33N 32°43' W 117°11'0 0.0
2015-Apr-29 12:33N 32°43' W 117°11'0 0.0
2015-Apr-29 11:31N 32°43' W 117°11'0 0.0
2015-Apr-29 10:33N 32°43' W 117°11'0 0.0
2015-Apr-29 09:33N 32°43' W 117°11'0 0.0
2015-Apr-29 08:33N 32°43' W 117°11'0 0.0
2015-Apr-29 07:31N 32°43' W 117°11'0 0.0
2015-Apr-29 06:33N 32°43' W 117°11'1 1.4
2015-Apr-29 05:33N 32°43' W 117°13'3 3.3
2015-Apr-29 04:33N 32°40' W 117°14'4 3.5
2015-Apr-29 03:33N 32°36' W 117°15'4 3.6
2015-Apr-29 02:33N 32°35' W 117°19'3 3.3
2015-Apr-29 01:33N 32°35' W 117°23'2 2.4
2015-Apr-29 00:33N 32°36' W 117°21'5 4.8
2015-Apr-28 23:33N 32°36' W 117°15'5 5.1
2015-Apr-28 22:33N 32°41' W 117°14'3 2.7
2015-Apr-28 21:33N 32°43' W 117°11'0 0.0
2015-Apr-28 20:33N 32°43' W 117°11'0 0.0
2015-Apr-28 19:33N 32°43' W 117°11'0 0.0
2015-Apr-28 18:33N 32°43' W 117°11'0 0.0
2015-Apr-28 17:33N 32°43' W 117°11'0 0.0
2015-Apr-28 16:33N 32°43' W 117°11'0 0.0
2015-Apr-28 15:33N 32°43' W 117°11'0 0.0
2015-Apr-28 14:33N 32°43' W 117°11'0 0.0
2015-Apr-28 13:33N 32°43' W 117°11'0 0.0
2015-Apr-28 12:33N 32°43' W 117°11'0 0.0
2015-Apr-28 11:33N 32°43' W 117°11'0 0.0
2015-Apr-28 10:33N 32°43' W 117°11'0 0.0
2015-Apr-28 09:33N 32°43' W 117°11'0 0.0
2015-Apr-28 08:33N 32°43' W 117°11'0 0.0
2015-Apr-28 07:33N 32°43' W 117°11'0 0.0
2015-Apr-28 06:33N 32°43' W 117°11'0 0.0
2015-Apr-28 05:33N 32°43' W 117°11'0 0.0
2015-Apr-28 04:33N 32°43' W 117°11'0 0.0
2015-Apr-28 03:33N 32°43' W 117°11'5 4.9
2015-Apr-28 02:33N 32°39' W 117°13'9 8.6
2015-Apr-28 01:33N 32°38' W 117°24'10 9.9
2015-Apr-28 00:33N 32°39' W 117°35'10 9.9
2015-Apr-27 23:33N 32°39' W 117°47'33 1.1
2015-Apr-26 17:24N 32°54' W 118°22'  
Track history (hours):
 
Tides and Currents Weather Stations Pressure Air Temp Water Temp Dewpoint Dewpoint Depression Visibility Wind Speed Wind Dir Waves Ship Positions

Diane G

Last reported at 2015-May-01 13:33 UTC. Time now 2015-May-05 09:13 UTC.
Position N 34°09' W 119°13'.

Length 35 m; draft 2.5 m.

Type: Military. MMSI: 369970275.

Date/timePositionNaut miles runAvg speedWind from/ knotsBaromVisibWave heightAir tempDewpointWater temp
2015-May-01 13:33N 34°09' W 119°13'1 1.0
2015-May-01 12:33N 34°08' W 119°13'9 8.8
2015-May-01 11:33N 34°01' W 119°06'9 9.0
2015-May-01 10:33N 33°55' W 118°59'9 8.7
2015-May-01 09:33N 33°49' W 118°51'10 9.1
2015-May-01 08:30N 33°43' W 118°42'9 9.1
2015-May-01 07:33N 33°37' W 118°35'9 8.9
2015-May-01 06:33N 33°30' W 118°28'9 9.2
2015-May-01 05:33N 33°24' W 118°20'9 9.4
2015-May-01 04:33N 33°17' W 118°12'9 9.4
2015-May-01 03:33N 33°10' W 118°04'9 9.3
2015-May-01 02:33N 33°04' W 117°56'9 9.1
2015-May-01 01:33N 32°59' W 117°47'9 9.3
2015-May-01 00:33N 32°53' W 117°38'9 8.9
2015-Apr-30 23:33N 32°47' W 117°31'9 8.8
2015-Apr-30 22:33N 32°42' W 117°23'8 8.3
2015-Apr-30 21:33N 32°37' W 117°14'5 5.5
2015-Apr-30 20:33N 32°43' W 117°13'2 0.1
2015-Apr-29 18:33N 32°43' W 117°11'0 0.0
2015-Apr-29 17:33N 32°43' W 117°11'0 0.0
2015-Apr-29 16:32N 32°43' W 117°11'0 0.0
2015-Apr-29 15:33N 32°43' W 117°11'0 0.0
2015-Apr-29 14:33N 32°43' W 117°11'0 0.0
2015-Apr-29 13:33N 32°43' W 117°11'0 0.0
2015-Apr-29 12:33N 32°43' W 117°11'0 0.0
2015-Apr-29 11:31N 32°43' W 117°11'0 0.0
2015-Apr-29 10:33N 32°43' W 117°11'0 0.0
2015-Apr-29 09:33N 32°43' W 117°11'0 0.0
2015-Apr-29 08:33N 32°43' W 117°11'0 0.0
2015-Apr-29 07:31N 32°43' W 117°11'0 0.0
2015-Apr-29 06:33N 32°43' W 117°11'1 1.4
2015-Apr-29 05:33N 32°43' W 117°13'3 3.3
2015-Apr-29 04:33N 32°40' W 117°14'4 3.5
2015-Apr-29 03:33N 32°36' W 117°15'4 3.6
2015-Apr-29 02:33N 32°35' W 117°19'3 3.3
2015-Apr-29 01:33N 32°35' W 117°23'2 2.4
2015-Apr-29 00:33N 32°36' W 117°21'5 4.8
2015-Apr-28 23:33N 32°36' W 117°15'5 5.1
2015-Apr-28 22:33N 32°41' W 117°14'3 2.7
2015-Apr-28 21:33N 32°43' W 117°11'0 0.0
2015-Apr-28 20:33N 32°43' W 117°11'0 0.0
2015-Apr-28 19:33N 32°43' W 117°11'0 0.0
2015-Apr-28 18:33N 32°43' W 117°11'0 0.0
2015-Apr-28 17:33N 32°43' W 117°11'0 0.0
2015-Apr-28 16:33N 32°43' W 117°11'0 0.0
2015-Apr-28 15:33N 32°43' W 117°11'0 0.0
2015-Apr-28 14:33N 32°43' W 117°11'0 0.0
2015-Apr-28 13:33N 32°43' W 117°11'0 0.0
2015-Apr-28 12:33N 32°43' W 117°11'0 0.0
2015-Apr-28 11:33N 32°43' W 117°11'0 0.0
2015-Apr-28 10:33N 32°43' W 117°11'0 0.0
2015-Apr-28 09:33N 32°43' W 117°11'0 0.0
2015-Apr-28 08:33N 32°43' W 117°11'0 0.0
2015-Apr-28 07:33N 32°43' W 117°11'0 0.0
2015-Apr-28 06:33N 32°43' W 117°11'0 0.0
2015-Apr-28 05:33N 32°43' W 117°11'0 0.0
2015-Apr-28 04:33N 32°43' W 117°11'0 0.0
2015-Apr-28 03:33N 32°43' W 117°11'5 4.9
2015-Apr-28 02:33N 32°39' W 117°13'9 8.6
2015-Apr-28 01:33N 32°38' W 117°24'10 9.9
2015-Apr-28 00:33N 32°39' W 117°35'10 9.9
2015-Apr-27 23:33N 32°39' W 117°47'33 1.1
2015-Apr-26 17:24N 32°54' W 118°22'  

Dump ship's entire track history